Data for 02/03/2016

Time Sea-Level Adjusted Pressure Absolute Pressure Temperature Relative Humidity Dew Point   
(mb) (inHg) (mb) (inHg) (C) (F) (%) (C) (F)
00:05 1019 30.09 848 25.04 -6.5 20.3 81 -9.2 15.4
00:10 1019 30.09 848 25.04 -6.6 20.2 82 -9.2 15.4
00:15 1019 30.09 848 25.04 -6.6 20.1 82 -9.2 15.4
00:20 1019 30.09 848 25.04 -6.6 20.1 81 -9.3 15.2
00:25 1019 30.09 848 25.04 -6.7 20 82 -9.3 15.2
00:30 1019 30.09 848 25.04 -6.9 19.5 83 -9.3 15.2
00:35 1019 30.09 848 25.04 -7 19.3 83 -9.4 15
00:40 1019 30.09 848 25.04 -7.1 19.2 83 -9.5 14.9
00:45 1019 30.09 848 25.04 -7.3 18.8 84 -9.6 14.6
00:50 1019 30.09 848 25.04 -7.6 18.2 85 -9.8 14.4
00:55 1019 30.09 848 25.04 -7.8 17.9 85 -10 14
01:00 1019 30.09 848 25.04 -7.9 17.8 84 -10.1 13.8
01:05 1019 30.09 848 25.04 -7.8 18 83 -10.1 13.8
01:10 1019 30.09 848 25.04 -7.6 18.3 83 -10 14
01:15 1019 30.09 848 25.04 -7.5 18.4 83 -9.9 14.2
01:20 1019 30.09 848 25.04 -7.5 18.5 83 -9.8 14.3
01:25 1019 30.09 848 25.04 -7.5 18.5 84 -9.7 14.6
01:30 1019 30.09 848 25.04 -7.4 18.7 84 -9.7 14.6
01:35 1019 30.09 848 25.04 -7.3 18.8 83 -9.7 14.6
01:40 1019 30.09 848 25.04 -7.3 18.9 83 -9.7 14.6
01:45 1019 30.09 848 25.04 -7.2 19 83 -9.6 14.7
01:50 1019 30.09 848 25.04 -7.2 19 83 -9.7 14.5
01:55 1019 30.09 848 25.04 -7.2 19 82 -9.7 14.5
02:00 1019 30.09 848 25.04 -7.2 19 82 -9.8 14.4
02:05 1019 30.09 848 25.04 -7.2 19.1 82 -9.8 14.4
02:10 1019 30.09 848 25.04 -7.3 18.8 83 -9.7 14.5
02:15 1019 30.09 848 25.04 -7.6 18.4 84 -9.8 14.4
02:20 1019 30.09 848 25.04 -7.8 18 85 -9.8 14.3
02:25 1019 30.09 848 25.04 -7.7 18.1 85 -9.9 14.2
02:30 1019 30.09 848 25.04 -7.7 18.2 84 -10 14
02:35 1019 30.09 848 25.04 -7.8 18 84 -10 13.9
02:40 1019 30.09 848 25.04 -7.9 17.8 82 -10.4 13.3
02:45 1019 30.09 848 25.04 -7.9 17.8 82 -10.5 13.1
02:50 1019 30.09 848 25.04 -7.7 18.1 81 -10.4 13.3
02:55 1019 30.09 848 25.04 -7.7 18.2 81 -10.3 13.4
03:00 1019 30.09 849 25.07 -7.7 18.2 81 -10.3 13.4
03:05 1019 30.09 849 25.07 -7.6 18.2 80 -10.5 13
03:10 1019 30.09 849 25.07 -7.7 18.2 81 -10.4 13.3
03:15 1019 30.09 849 25.07 -7.8 17.9 81 -10.6 13
03:20 1019 30.09 849 25.07 -7.8 17.9 78 -11.1 12.1
03:25 1020 30.12 849 25.07 -7.8 18 78 -11 12.2
03:30 1020 30.12 849 25.07 -7.7 18.2 78 -10.9 12.4
03:35 1020 30.12 849 25.07 -7.5 18.4 76 -11.1 12.1
03:40 1020 30.12 849 25.07 -7.5 18.6 75 -11.2 11.9
03:45 1020 30.12 849 25.07 -7.4 18.7 76 -11 12.2
03:50 1020 30.12 849 25.07 -7.4 18.6 74 -11.3 11.7
03:55 1020 30.12 849 25.07 -7.4 18.7 73 -11.4 11.5
04:00 1020 30.12 849 25.07 -7.4 18.8 73 -11.3 11.6
04:05 1020 30.12 849 25.07 -7.4 18.7 74 -11.3 11.6
04:10 1020 30.12 849 25.07 -7.3 18.8 74 -11.3 11.7
04:15 1020 30.12 849 25.07 -7.4 18.8 73 -11.4 11.5
04:20 1020 30.12 849 25.07 -7.4 18.7 72 -11.7 11
04:25 1020 30.12 849 25.07 -7.5 18.4 72 -11.8 10.8
04:30 1020 30.12 849 25.07 -7.5 18.5 71 -11.8 10.7
04:35 1020 30.12 849 25.07 -7.5 18.6 70 -12.1 10.2
04:40 1020 30.12 849 25.07 -7.4 18.6 67 -12.5 9.5
04:45 1020 30.12 849 25.07 -7.6 18.3 66 -12.8 8.9
04:50 1020 30.12 849 25.07 -7.7 18.1 68 -12.7 9.1
04:55 1020 30.12 849 25.07 -7.7 18.2 64 -13.3 8
05:00 1020 30.12 849 25.07 -7.4 18.7 63 -13.3 8.1
05:05 1020 30.12 849 25.07 -7.2 19 63 -13.2 8.3
05:10 1020 30.12 849 25.07 -7.1 19.1 62 -13.3 8.1
05:15 1020 30.12 849 25.07 -7.1 19.3 60 -13.5 7.7
05:20 1020 30.12 849 25.07 -7 19.4 60 -13.4 7.8
05:25 1020 30.12 849 25.07 -7 19.4 60 -13.5 7.7
05:30 1020 30.12 849 25.07 -7 19.4 60 -13.5 7.7
05:35 1020 30.12 849 25.07 -7.1 19.3 60 -13.7 7.4
05:40 1020 30.12 849 25.07 -7.1 19.2 60 -13.6 7.5
05:45 1020 30.12 849 25.07 -7.2 19 60 -13.8 7.2
05:50 1020 30.12 849 25.07 -7.2 19 59 -13.8 7.1
05:55 1020 30.12 849 25.07 -7.2 19.1 60 -13.7 7.4
06:00 1020 30.12 849 25.07 -7.1 19.2 60 -13.6 7.5
06:05 1020 30.12 849 25.07 -7.1 19.2 60 -13.6 7.5
06:10 1020 30.12 849 25.07 -7.1 19.3 61 -13.3 8
06:15 1020 30.12 849 25.07 -7.1 19.2 61 -13.4 7.9
06:20 1020 30.12 849 25.07 -7.1 19.2 59 -13.8 7.2
06:25 1020 30.12 849 25.07 -7.1 19.3 57 -14.3 6.3
06:30 1020 30.12 849 25.07 -7.2 19.1 58 -14.1 6.7
06:35 1020 30.12 849 25.07 -7.5 18.5 59 -14.2 6.5
06:40 1020 30.12 849 25.07 -7.9 17.7 60 -14.4 6.1
06:45 1020 30.12 849 25.07 -8.3 17.1 60 -14.7 5.5
06:50 1020 30.12 849 25.07 -8.3 17.2 59 -14.9 5.2
06:55 1020 30.12 849 25.07 -8.2 17.3 60 -14.7 5.6
07:00 1020 30.12 849 25.07 -8.1 17.4 60 -14.6 5.6
07:05 1020 30.12 849 25.07 -8.2 17.3 60 -14.6 5.7
07:10 1020 30.12 849 25.07 -8.3 17 61 -14.6 5.7
07:15 1020 30.12 849 25.07 -8.6 16.5 61 -14.8 5.3
07:20 1020 30.12 850 25.1 -8.8 16.2 61 -15 5
07:25 1020 30.12 850 25.1 -8.8 16.1 60 -15.3 4.4
07:30 1020 30.12 850 25.1 -8.8 16.2 60 -15.3 4.4
07:35 1020 30.12 850 25.1 -8.6 16.5 59 -15.3 4.5
07:40 1020 30.12 850 25.1 -8.4 16.9 58 -15.3 4.5
07:45 1021 30.15 850 25.1 -8.2 17.2 57 -15.3 4.5
07:50 1021 30.15 850 25.1 -8.2 17.2 58 -15.1 4.7
07:55 1021 30.15 850 25.1 -8.4 17 58 -15.3 4.4
08:00 1021 30.15 850 25.1 -8.3 17 57 -15.5 4.1
08:05 1021 30.15 850 25.1 -8.3 17.1 56 -15.5 4
08:10 1021 30.15 850 25.1 -8.2 17.2 54 -15.9 3.5
08:15 1021 30.15 850 25.1 -8 17.6 54 -15.9 3.5
08:20 1021 30.15 850 25.1 -8 17.5 54 -15.9 3.4
08:25 1021 30.15 850 25.1 -8.1 17.4 54 -15.9 3.4
08:30 1021 30.15 850 25.1 -8.2 17.3 54 -15.9 3.4
08:35 1021 30.15 850 25.1 -8.3 17.1 55 -15.8 3.6
08:40 1021 30.15 850 25.1 -8.5 16.8 57 -15.4 4.2
08:45 1021 30.15 850 25.1 -8.9 15.9 59 -15.5 4.1
08:50 1021 30.15 850 25.1 -9.4 15.1 60 -15.7 3.7
08:55 1021 30.15 850 25.1 -9.8 14.3 60 -16.3 2.7
09:00 1021 30.15 850 25.1 -9.7 14.6 59 -16.3 2.7
09:05 1021 30.15 850 25.1 -9.6 14.7 61 -15.7 3.7
09:10 1021 30.15 850 25.1 -9.8 14.4 63 -15.6 3.9
09:15 1021 30.15 850 25.1 -9.3 15.3 59 -16 3.3
09:20 1021 30.15 850 25.1 -8.7 16.4 60 -15.2 4.6
09:25 1021 30.15 851 25.13 -8.7 16.3 59 -15.4 4.3
09:30 1021 30.15 851 25.13 -8.5 16.7 58 -15.4 4.2
09:35 1021 30.15 851 25.13 -8.5 16.6 58 -15.3 4.5
09:40 1021 30.15 851 25.13 -8.7 16.3 60 -15.1 4.9
09:45 1021 30.15 851 25.13 -8.7 16.3 60 -15.2 4.7
09:50 1021 30.15 851 25.13 -8.2 17.2 56 -15.4 4.2
09:55 1021 30.15 851 25.13 -7.6 18.3 54 -15.5 4.1
10:00 1022 30.18 851 25.13 -7.3 18.8 54 -15.2 4.6
10:05 1022 30.18 851 25.13 -7.6 18.3 54 -15.3 4.4
10:10 1022 30.18 851 25.13 -7.4 18.7 53 -15.4 4.2
10:15 1022 30.18 851 25.13 -7.1 19.3 52 -15.4 4.3
10:20 1021 30.15 851 25.13 -6.9 19.6 50 -15.6 3.8
10:25 1022 30.18 851 25.13 -6.5 20.3 51 -15.1 4.8
10:30 1022 30.18 851 25.13 -5.7 21.8 47 -15.2 4.6
10:35 1022 30.18 851 25.13 -5.2 22.6 46 -15.2 4.6
10:40 1022 30.18 851 25.13 -5.1 22.9 45 -15.2 4.7
10:45 1022 30.18 851 25.13 -4.9 23.2 45 -15.2 4.6
10:50 1022 30.18 851 25.13 -4.7 23.5 45 -14.9 5.1
10:55 1022 30.18 851 25.13 -4.5 23.9 42 -15.4 4.2
11:00 1022 30.18 851 25.13 -3.9 24.9 41 -15.3 4.5
11:05 1022 30.18 851 25.13 -3.3 26.1 40 -15.1 4.8
11:10 1022 30.18 851 25.13 -3.7 25.4 40 -15.3 4.5
11:15 1022 30.18 851 25.13 -3.5 25.8 39 -15.7 3.8
11:20 1022 30.18 851 25.13 -3.3 26.1 39 -15.3 4.4
11:25 1022 30.18 851 25.13 -3.5 25.7 38 -15.8 3.5
11:30 1022 30.18 851 25.13 -3.7 25.4 37 -16.4 2.5
11:35 1022 30.18 851 25.13 -3.2 26.3 35 -16.6 2
11:40 1022 30.18 851 25.13 -3 26.6 33 -17 1.4
11:45 1022 30.18 851 25.13 -3.2 26.2 33 -17.2 1
11:50 1022 30.18 851 25.13 -3.5 25.7 35 -16.8 1.8
11:55 1022 30.18 851 25.13 -3.4 25.9 34 -17.3 0.8
12:00 1022 30.18 851 25.13 -3.2 26.2 34 -16.9 1.5
12:05 1022 30.18 851 25.13 -3.1 26.4 35 -16.7 1.9
12:10 1022 30.18 851 25.13 -3.4 26 36 -16.5 2.3
12:15 1022 30.18 851 25.13 -3.5 25.7 37 -16.3 2.6
12:20 1022 30.18 851 25.13 -4.3 24.3 38 -16.6 2.2
12:25 1022 30.18 851 25.13 -4.4 24 38 -16.6 2.1
12:30 1022 30.18 851 25.13 -3.8 25.3 37 -16.3 2.7
12:35 1022 30.18 851 25.13 -2.9 26.9 35 -16.2 2.8
12:40 1022 30.18 851 25.13 -2.4 27.6 35 -15.8 3.6
12:45 1022 30.18 851 25.13 -1.8 28.8 35 -15.5 4.1
12:50 1022 30.18 851 25.13 -2.1 28.3 35 -15.5 4
12:55 1022 30.18 851 25.13 -2 28.4 36 -15.2 4.7
13:00 1022 30.18 851 25.13 -1.7 28.9 36 -15 5.1
13:05 1021 30.15 851 25.13 -1.2 29.8 34 -15.4 4.3
13:10 1021 30.15 851 25.13 -1.2 29.8 34 -15.2 4.6
13:15 1021 30.15 850 25.1 -1.1 30.1 32 -15.6 3.9
13:20 1021 30.15 850 25.1 -1 30.3 32 -15.7 3.7
13:25 1021 30.15 850 25.1 -1.7 29 35 -15.4 4.3
13:30 1021 30.15 850 25.1 -1.7 28.9 33 -16.1 3
13:35 1021 30.15 850 25.1 -1.2 29.8 31 -16.2 2.9
13:40 1021 30.15 850 25.1 -0.5 31.1 31 -15.5 4
13:45 1021 30.15 850 25.1 -1.1 29.9 36 -14.3 6.2
13:50 1021 30.15 850 25.1 -1.6 29 32 -16.2 2.9
13:55 1021 30.15 850 25.1 -1.8 28.7 33 -16.1 3.1
14:00 1021 30.15 850 25.1 -2.7 27.2 33 -16.7 2
14:05 1021 30.15 850 25.1 -2.3 27.8 34 -16.2 2.9
14:10 1020 30.12 850 25.1 -1.5 29.2 34 -15.6 3.9
14:15 1020 30.12 850 25.1 -0.7 30.7 30 -16.3 2.7
14:20 1020 30.12 850 25.1 -0.6 30.9 31 -16 3.3
14:25 1020 30.12 850 25.1 -1.3 29.7 31 -16.4 2.5
14:30 1020 30.12 850 25.1 -1.2 29.9 31 -16.3 2.6
14:35 1020 30.12 850 25.1 -0.2 31.6 30 -15.9 3.4
14:40 1020 30.12 850 25.1 -0.1 31.8 27 -17 1.4
14:45 1020 30.12 850 25.1 -1 30.3 29 -16.9 1.5
14:50 1020 30.12 850 25.1 -0.9 30.3 29 -16.7 1.9
14:55 1020 30.12 850 25.1 -0.1 31.9 29 -16.3 2.7
15:00 1021 30.15 850 25.1 0.5 32.9 27 -16.6 2.1
15:05 1021 30.15 850 25.1 0.3 32.6 27 -16.4 2.4
15:10 1021 30.15 850 25.1 -0.6 30.8 30 -16.3 2.6
15:15 1021 30.15 850 25.1 -0.5 31.1 31 -15.7 3.7
15:20 1021 30.15 850 25.1 -0.6 30.9 31 -15.6 4
15:25 1021 30.15 850 25.1 -0.5 31.2 31 -15.7 3.8
15:30 1021 30.15 850 25.1 -0.7 30.8 30 -16.1 3.1
15:35 1021 30.15 850 25.1 -0.8 30.5 33 -15.1 4.7
15:40 1021 30.15 850 25.1 -1.2 29.9 35 -14.9 5.2
15:45 1020 30.12 850 25.1 -2 28.4 38 -14.4 6.1
15:50 1020 30.12 850 25.1 -2.8 27 38 -15.1 4.8
15:55 1020 30.12 850 25.1 -3 26.6 40 -14.9 5.2
16:00 1020 30.12 850 25.1 -2.8 27 38 -15.2 4.7
16:05 1020 30.12 850 25.1 -2.9 26.8 36 -15.9 3.3
16:10 1020 30.12 850 25.1 -3 26.7 38 -15.5 4.1
16:15 1020 30.12 850 25.1 -2.6 27.4 36 -15.7 3.8
16:20 1020 30.12 850 25.1 -2.2 28.1 34 -16.2 2.9
16:25 1020 30.12 849 25.07 -2.1 28.2 35 -15.6 3.9
16:30 1020 30.12 849 25.07 -2.1 28.2 34 -16.2 2.9
16:35 1020 30.12 849 25.07 -2.5 27.5 34 -16.4 2.5
16:40 1020 30.12 849 25.07 -2.1 28.2 34 -16.1 3
16:45 1020 30.12 849 25.07 -1.2 29.8 31 -16.1 2.9
16:50 1020 30.12 849 25.07 -0.8 30.5 32 -15.8 3.6
16:55 1020 30.12 849 25.07 -1.1 30 32 -15.7 3.8
17:00 1020 30.12 849 25.07 -1.4 29.4 32 -16 3.3
17:05 1020 30.12 849 25.07 -1.4 29.4 33 -15.8 3.6
17:10 1020 30.12 849 25.07 -1.2 29.9 32 -15.9 3.4
17:15 1020 30.12 849 25.07 -0.9 30.3 32 -15.7 3.7
17:20 1020 30.12 849 25.07 -1.4 29.5 33 -15.6 4
17:25 1020 30.12 849 25.07 -1.2 29.9 31 -16.3 2.7
17:30 1020 30.12 849 25.07 -1.4 29.5 34 -15.4 4.2
17:35 1019 30.09 849 25.07 -1.8 28.8 33 -16.1 3
17:40 1019 30.09 849 25.07 -2.2 28.1 34 -16 3.2
17:45 1019 30.09 849 25.07 -2.5 27.5 34 -16.4 2.5
17:50 1019 30.09 849 25.07 -2.4 27.7 35 -15.7 3.7
17:55 1019 30.09 849 25.07 -2.8 27 34 -16.7 2
18:00 1019 30.09 849 25.07 -2.9 26.7 35 -16.3 2.6
18:05 1019 30.09 849 25.07 -2.6 27.3 33 -16.6 2.1
18:10 1019 30.09 848 25.04 -2.6 27.3 33 -16.9 1.6
18:15 1019 30.09 849 25.07 -2.5 27.4 33 -16.6 2.1
18:20 1019 30.09 849 25.07 -2.4 27.6 33 -16.5 2.2
18:25 1019 30.09 849 25.07 -2.8 27 33 -16.8 1.8
18:30 1019 30.09 849 25.07 -2.9 26.7 37 -15.7 3.8
18:35 1020 30.12 849 25.07 -3.1 26.4 39 -15.4 4.4
18:40 1020 30.12 849 25.07 -3.3 26 39 -15.6 4
18:45 1020 30.12 849 25.07 -3.6 25.6 36 -16.5 2.3
18:50 1020 30.12 849 25.07 -3.6 25.6 40 -15.4 4.3
18:55 1020 30.12 849 25.07 -3.6 25.5 41 -15 5
19:00 1020 30.12 849 25.07 -4 24.7 41 -15.4 4.3
19:05 1020 30.12 849 25.07 -4.5 23.9 39 -16.5 2.3
19:10 1020 30.12 849 25.07 -4.6 23.7 40 -16.3 2.6
19:15 1020 30.12 849 25.07 -4.4 24.1 43 -15.2 4.6
19:20 1020 30.12 849 25.07 -4.9 23.2 46 -14.9 5.2
19:25 1020 30.12 849 25.07 -5.4 22.3 46 -15.3 4.5
19:30 1020 30.12 849 25.07 -5.5 22 44 -16 3.2
19:35 1020 30.12 849 25.07 -5.5 22 48 -14.9 5.2
19:40 1020 30.12 849 25.07 -5.9 21.5 47 -15.5 4
19:45 1020 30.12 849 25.07 -5.9 21.4 48 -15.3 4.5
19:50 1020 30.12 849 25.07 -5.8 21.6 45 -15.9 3.4
19:55 1020 30.12 849 25.07 -5.4 22.2 46 -15.2 4.6
20:00 1020 30.12 849 25.07 -6 21.3 50 -14.9 5.2
20:05 1020 30.12 849 25.07 -6.1 21 49 -15.1 4.9
20:10 1020 30.12 849 25.07 -6.2 20.9 50 -15.1 4.8
20:15 1020 30.12 849 25.07 -6.4 20.4 51 -15.1 4.9
20:20 1020 30.12 849 25.07 -6.3 20.7 51 -14.8 5.4
20:25 1020 30.12 849 25.07 -6.1 21 50 -14.9 5.3
20:30 1020 30.12 849 25.07 -6.3 20.7 50 -15.2 4.7
20:35 1020 30.12 849 25.07 -6.2 20.8 53 -14.3 6.3
20:40 1020 30.12 849 25.07 -7 19.3 56 -14.4 6
20:45 1020 30.12 849 25.07 -7.5 18.5 53 -15.6 4
20:50 1020 30.12 849 25.07 -7.2 19.1 51 -15.6 3.9
20:55 1020 30.12 849 25.07 -7.3 18.9 53 -15.2 4.7
21:00 1020 30.12 849 25.07 -7.4 18.8 56 -14.8 5.4
21:05 1020 30.12 849 25.07 -7 19.3 54 -14.8 5.4
21:10 1020 30.12 849 25.07 -7 19.3 54 -14.8 5.4
21:15 1020 30.12 849 25.07 -7.3 18.9 53 -15.3 4.5
21:20 1020 30.12 849 25.07 -7.4 18.6 54 -15.2 4.7
21:25 1020 30.12 849 25.07 -7.5 18.5 57 -14.7 5.6
21:30 1020 30.12 849 25.07 -7.5 18.4 58 -14.4 6.1
21:35 1020 30.12 849 25.07 -7.4 18.7 56 -14.7 5.6
21:40 1020 30.12 849 25.07 -7.3 18.9 57 -14.5 5.9
21:45 1020 30.12 849 25.07 -7.3 18.9 56 -14.5 5.9
21:50 1020 30.12 849 25.07 -7.4 18.6 56 -14.7 5.5
21:55 1020 30.12 849 25.07 -7.5 18.6 56 -14.8 5.4
22:00 1020 30.12 849 25.07 -7.5 18.6 57 -14.6 5.6
22:05 1020 30.12 849 25.07 -7.5 18.5 56 -14.9 5.2
22:10 1020 30.12 849 25.07 -7.8 18 58 -14.7 5.6
22:15 1020 30.12 849 25.07 -8.2 17.3 59 -14.9 5.2
22:20 1020 30.12 849 25.07 -8.4 16.9 59 -15.1 4.8
22:25 1020 30.12 849 25.07 -8.3 17.1 59 -14.9 5.2
22:30 1020 30.12 849 25.07 -8.3 17 60 -14.9 5.2
22:35 1020 30.12 849 25.07 -8.3 17.1 61 -14.6 5.7
22:40 1020 30.12 849 25.07 -8.2 17.3 58 -15 4.9
22:45 1020 30.12 849 25.07 -8.3 17 58 -15.1 4.8
22:50 1020 30.12 849 25.07 -8.6 16.5 58 -15.4 4.2
22:55 1020 30.12 849 25.07 -8.6 16.5 59 -15.3 4.5
23:00 1020 30.12 849 25.07 -8.6 16.4 58 -15.5 4.2
23:05 1020 30.12 849 25.07 -8.9 16 60 -15.4 4.3
23:10 1020 30.12 849 25.07 -9 15.8 60 -15.4 4.4
23:15 1020 30.12 849 25.07 -8.9 15.9 60 -15.4 4.3
23:20 1020 30.12 849 25.07 -9 15.8 61 -15.3 4.5
23:25 1020 30.12 849 25.07 -9 15.8 60 -15.4 4.3
23:30 1020 30.12 849 25.07 -9.1 15.6 60 -15.5 4.2
23:35 1020 30.12 849 25.07 -9.3 15.3 61 -15.5 4
23:40 1020 30.12 849 25.07 -9.5 14.9 61 -15.7 3.7
23:45 1020 30.12 849 25.07 -10 14 63 -15.8 3.5
23:50 1020 30.12 849 25.07 -10.1 13.9 63 -15.9 3.4
23:55 1020 30.12 849 25.07 -9.9 14.2 62 -15.9 3.4
24:00 1020 30.12 849 25.07 -10.1 13.8 63 -15.9 3.5